Time;durP1;ratioP1;P1;durP2;ratioP2;P2;SDS_P1;SDS_P2;PMS_P1;PMS_P2;Temp;Humidity;BMP_temperature;BMP_pressure;BME280_temperature;BME280_humidity;BME280_pressure;Samples;Min_cycle;Max_cycle;Signal;HPM_P1;HPM_P2
2023/12/12 00:05:30;;;;;;;2.97;2.10;;;8.80;99.90;;;;;;21118829;28;20036;-79
2023/12/12 00:15:30;;;;;;;4.00;2.03;;;8.70;99.90;;;;;;21139453;28;20035;-80
2023/12/12 00:25:31;;;;;;;3.00;1.97;;;8.80;99.90;;;;;;21132094;28;20099;-75
2023/12/12 00:35:32;;;;;;;4.93;1.90;;;8.70;99.90;;;;;;21160128;28;20055;-78
2023/12/12 00:45:33;;;;;;;2.97;1.93;;;8.70;99.90;;;;;;21146673;28;20023;-79
2023/12/12 00:55:34;;;;;;;3.90;2.23;;;8.70;99.90;;;;;;21109163;28;20028;-79
2023/12/12 01:05:34;;;;;;;4.13;2.33;;;8.70;99.90;;;;;;21122504;28;20038;-77
2023/12/12 01:15:35;;;;;;;7.33;2.13;;;8.60;99.90;;;;;;21134381;28;20025;-79
2023/12/12 01:25:36;;;;;;;6.43;2.47;;;8.50;99.90;;;;;;21135342;28;20086;-77
2023/12/12 01:35:36;;;;;;;5.87;3.13;;;8.40;99.90;;;;;;21147171;28;20122;-78
2023/12/12 01:45:37;;;;;;;6.90;3.73;;;8.30;99.90;;;;;;21142302;28;20087;-79
2023/12/12 01:55:38;;;;;;;7.60;4.33;;;8.30;99.90;;;;;;21113264;28;20034;-79
2023/12/12 02:05:41;;;;;;;7.60;3.50;;;8.40;99.90;;;;;;21135969;28;20027;-78
2023/12/12 02:15:42;;;;;;;6.85;3.13;;;8.50;99.90;;;;;;21106085;28;20057;-77
2023/12/12 02:25:43;;;;;;;5.60;3.23;;;8.40;99.90;;;;;;21128818;28;20055;-79
2023/12/12 02:35:44;;;;;;;6.18;2.65;;;8.50;99.90;;;;;;21093902;28;20050;-79
2023/12/12 02:45:45;;;;;;;9.83;3.43;;;8.50;99.90;;;;;;21108875;28;20027;-78
2023/12/12 02:55:46;;;;;;;8.00;4.60;;;8.40;99.90;;;;;;21114872;28;20028;-78
2023/12/12 03:05:47;;;;;;;12.87;4.73;;;8.40;99.90;;;;;;21110343;28;20028;-80
2023/12/12 03:15:47;;;;;;;9.73;5.97;;;8.40;99.90;;;;;;21116005;28;20064;-79
2023/12/12 03:25:48;;;;;;;13.07;7.50;;;8.50;99.90;;;;;;21120664;28;20024;-79
2023/12/12 03:35:49;;;;;;;12.57;6.60;;;8.50;99.90;;;;;;21142346;28;20046;-79
2023/12/12 03:45:50;;;;;;;11.87;5.13;;;8.50;99.90;;;;;;21144513;28;20038;-79
2023/12/12 03:55:51;;;;;;;5.82;3.67;;;8.30;99.90;;;;;;21114031;28;20047;-79
2023/12/12 04:05:52;;;;;;;6.70;3.30;;;8.30;99.90;;;;;;21144155;28;20035;-80
2023/12/12 04:15:53;;;;;;;4.83;3.07;;;8.30;99.90;;;;;;21125639;28;20036;-79
2023/12/12 04:25:53;;;;;;;8.93;4.73;;;8.30;99.90;;;;;;21150760;28;20024;-79
2023/12/12 04:35:54;;;;;;;8.37;4.50;;;8.30;99.90;;;;;;21149130;28;20294;-79
2023/12/12 04:45:56;;;;;;;7.97;4.43;;;8.30;99.90;;;;;;21144344;28;20032;-79
2023/12/12 04:55:56;;;;;;;6.95;4.00;;;8.30;99.90;;;;;;21135577;28;20511;-78
2023/12/12 05:05:57;;;;;;;7.80;4.43;;;8.30;99.90;;;;;;21115916;28;20034;-79
2023/12/12 05:15:58;;;;;;;10.33;4.87;;;8.30;99.90;;;;;;21140407;28;20032;-79
2023/12/12 05:25:59;;;;;;;7.67;3.83;;;8.20;99.90;;;;;;21112577;28;20027;-79
2023/12/12 05:35:59;;;;;;;8.23;4.10;;;8.30;99.90;;;;;;21124793;28;20040;-79
2023/12/12 05:46:00;;;;;;;10.87;5.43;;;8.20;99.90;;;;;;21109581;28;20032;-78
2023/12/12 05:56:01;;;;;;;13.47;5.57;;;8.20;99.90;;;;;;21112724;28;20059;-77
2023/12/12 06:06:02;;;;;;;28.27;6.77;;;8.20;99.90;;;;;;21109542;28;20330;-78
2023/12/12 06:16:03;;;;;;;14.63;5.45;;;8.20;99.90;;;;;;21105717;28;20070;-79
2023/12/12 06:26:04;;;;;;;8.63;4.45;;;8.20;99.90;;;;;;21112355;28;20040;-78
2023/12/12 06:36:06;;;;;;;9.88;4.18;;;8.10;99.90;;;;;;21130272;28;20028;-79
2023/12/12 06:46:08;;;;;;;10.73;4.55;;;8.10;99.90;;;;;;21112209;28;20035;-78
2023/12/12 06:56:09;;;;;;;9.88;4.15;;;8.00;99.90;;;;;;21099477;28;20029;-78
2023/12/12 07:06:10;;;;;;;5.97;2.90;;;8.00;99.90;;;;;;21112119;28;20017;-77
2023/12/12 07:16:11;;;;;;;5.67;2.30;;;8.00;99.90;;;;;;21087290;28;20028;-77
2023/12/12 07:26:15;;;;;;;2.47;1.53;;;8.00;99.90;;;;;;21112911;28;20669;-79
2023/12/12 07:36:15;;;;;;;4.70;1.90;;;8.10;99.90;;;;;;21116461;28;20037;-79
2023/12/12 07:46:16;;;;;;;3.00;1.67;;;8.10;99.90;;;;;;21110325;28;20112;-79
2023/12/12 07:56:17;;;;;;;3.63;1.67;;;8.10;99.90;;;;;;21109232;28;20059;-77
2023/12/12 08:06:19;;;;;;;7.73;2.30;;;8.00;99.90;;;;;;21088689;28;20027;-77
2023/12/12 08:16:23;;;;;;;5.75;2.80;;;8.00;99.90;;;;;;21100354;28;20485;-77
2023/12/12 08:26:24;;;;;;;4.70;2.35;;;8.00;99.90;;;;;;21098824;28;20024;-77
2023/12/12 08:36:25;;;;;;;6.13;3.27;;;8.00;99.90;;;;;;21097516;28;20059;-77
2023/12/12 08:46:26;;;;;;;9.57;4.77;;;8.10;99.90;;;;;;21090967;28;20489;-77
2023/12/12 08:56:27;;;;;;;9.10;4.07;;;8.20;99.90;;;;;;21069062;28;20040;-77
2023/12/12 09:06:28;;;;;;;7.05;3.83;;;8.20;99.90;;;;;;21089107;28;20040;-77
2023/12/12 09:16:29;;;;;;;4.50;2.60;;;8.30;99.90;;;;;;21095153;28;20032;-76
2023/12/12 09:26:30;;;;;;;2.70;1.73;;;8.40;99.90;;;;;;21093504;28;20504;-77
2023/12/12 09:36:31;;;;;;;2.50;1.20;;;8.50;99.90;;;;;;21072259;28;20590;-77
2023/12/12 09:46:32;;;;;;;1.67;1.10;;;8.60;99.90;;;;;;21085497;28;20038;-77
2023/12/12 09:56:35;;;;;;;14.65;5.13;;;8.80;99.90;;;;;;21088523;28;20028;-76
2023/12/12 10:06:42;;;;;;;6.95;2.55;;;8.90;99.90;;;;;;21093896;28;20424;-77
2023/12/12 10:16:44;;;;;;;7.07;4.00;;;8.90;99.90;;;;;;21076148;28;20058;-76
2023/12/12 10:26:47;;;;;;;10.00;5.70;;;9.00;99.90;;;;;;21099394;28;20381;-77
2023/12/12 10:36:48;;;;;;;10.50;5.57;;;9.00;99.90;;;;;;21091910;28;20043;-77
2023/12/12 10:46:54;;;;;;;12.37;7.30;;;9.20;99.90;;;;;;21099792;28;20039;-77
2023/12/12 10:56:56;;;;;;;12.48;7.40;;;9.30;99.90;;;;;;21093568;28;20354;-76
2023/12/12 11:06:57;;;;;;;10.80;6.30;;;9.30;99.90;;;;;;21093798;28;20031;-78
2023/12/12 11:16:59;;;;;;;16.52;8.65;;;9.20;99.90;;;;;;21096371;28;20031;-77
2023/12/12 11:27:00;;;;;;;19.85;9.35;;;9.10;99.90;;;;;;21089499;28;20027;-77
2023/12/12 11:37:01;;;;;;;14.87;7.77;;;9.30;99.90;;;;;;21098766;28;20032;-77
2023/12/12 11:47:02;;;;;;;13.70;7.23;;;9.30;99.90;;;;;;21092720;28;20027;-77
2023/12/12 11:57:03;;;;;;;15.03;7.27;;;9.20;99.90;;;;;;21110550;28;20023;-78
2023/12/12 12:07:04;;;;;;;13.57;7.22;;;9.30;99.90;;;;;;21117881;28;20296;-77
2023/12/12 12:17:05;;;;;;;13.73;7.00;;;9.40;99.90;;;;;;21115666;28;20027;-76
2023/12/12 12:27:06;;;;;;;11.13;6.95;;;9.40;99.90;;;;;;21105086;28;20028;-77
2023/12/12 12:37:07;;;;;;;13.00;6.83;;;9.40;99.90;;;;;;21104054;28;20420;-77
2023/12/12 12:47:09;;;;;;;11.25;6.75;;;9.40;99.90;;;;;;21100596;28;20035;-77
2023/12/12 12:57:14;;;;;;;12.07;6.90;;;9.40;99.90;;;;;;21082526;28;20024;-77
2023/12/12 13:07:15;;;;;;;12.65;7.10;;;9.50;99.90;;;;;;21094668;28;20023;-77
2023/12/12 13:17:16;;;;;;;12.87;7.07;;;9.50;99.90;;;;;;21078711;28;20107;-77
2023/12/12 13:27:16;;;;;;;8.90;4.57;;;9.50;99.90;;;;;;21083223;28;20039;-78
2023/12/12 13:37:17;;;;;;;5.97;3.90;;;9.40;99.90;;;;;;21098249;28;20435;-77
2023/12/12 13:47:18;;;;;;;107.80;13.27;;;9.50;99.90;;;;;;21100998;28;20021;-76
2023/12/12 13:57:19;;;;;;;159.37;13.73;;;9.60;99.90;;;;;;21100443;28;20020;-77
2023/12/12 14:07:21;;;;;;;15.60;6.53;;;9.50;99.90;;;;;;21100758;28;20028;-77
2023/12/12 14:17:22;;;;;;;8.73;3.38;;;9.50;99.90;;;;;;21097293;28;20549;-77
2023/12/12 14:27:23;;;;;;;27.73;13.77;;;9.60;99.90;;;;;;21104627;28;20028;-77
2023/12/12 14:37:26;;;;;;;9.88;4.43;;;9.60;99.90;;;;;;21098505;28;20489;-76
2023/12/12 14:47:26;;;;;;;5.68;3.50;;;9.50;99.90;;;;;;21116174;28;20100;-77
2023/12/12 14:57:27;;;;;;;18.33;7.93;;;9.60;99.90;;;;;;21084647;28;20036;-77
2023/12/12 15:07:28;;;;;;;82.20;12.80;;;9.60;99.90;;;;;;21085955;28;20029;-78
2023/12/12 15:17:29;;;;;;;7.27;3.60;;;9.50;99.90;;;;;;21080740;28;20567;-77
2023/12/12 15:27:29;;;;;;;219.20;12.87;;;9.50;99.90;;;;;;21088437;28;20087;-78
2023/12/12 15:37:30;;;;;;;10.27;4.87;;;9.50;99.90;;;;;;20983747;23;20041;-80
2023/12/12 15:47:31;;;;;;;7.90;4.50;;;9.40;99.90;;;;;;20837509;28;20045;-81
2023/12/12 15:57:32;;;;;;;6.63;4.63;;;9.50;99.90;;;;;;20829643;28;20041;-79
2023/12/12 16:07:32;;;;;;;89.47;15.93;;;9.40;99.90;;;;;;20823894;28;20066;-81
2023/12/12 16:17:33;;;;;;;42.00;9.93;;;9.30;99.90;;;;;;20823250;28;20033;-79
2023/12/12 16:27:35;;;;;;;55.97;11.18;;;9.40;99.90;;;;;;20809644;28;20061;-80
2023/12/12 16:37:42;;;;;;;20.17;11.23;;;9.40;99.90;;;;;;20805193;28;20041;-80
2023/12/12 16:47:44;;;;;;;12.30;6.75;;;9.50;99.90;;;;;;20824828;28;20025;-79
2023/12/12 16:57:45;;;;;;;14.73;8.38;;;9.70;99.90;;;;;;20817554;28;20105;-79
2023/12/12 17:07:49;;;;;;;16.52;8.70;;;9.90;99.90;;;;;;20818056;28;20029;-79
2023/12/12 17:17:49;;;;;;;11.73;7.20;;;9.90;99.90;;;;;;20813607;28;20065;-78
2023/12/12 17:27:50;;;;;;;8.80;4.17;;;10.10;99.90;;;;;;20823640;28;20527;-79
2023/12/12 17:37:51;;;;;;;13.60;6.60;;;10.50;99.90;;;;;;20828651;28;20033;-78
2023/12/12 17:47:52;;;;;;;9.87;4.53;;;10.40;99.90;;;;;;20802367;28;20416;-81
2023/12/12 17:57:53;;;;;;;7.87;4.67;;;10.20;99.90;;;;;;20786780;28;20044;-79
2023/12/12 18:07:54;;;;;;;8.63;3.60;;;10.20;99.90;;;;;;20814544;28;20040;-79
2023/12/12 18:17:55;;;;;;;9.30;4.83;;;10.20;99.90;;;;;;20799725;28;20032;-78
2023/12/12 18:27:58;;;;;;;5.43;3.63;;;10.20;99.90;;;;;;20775117;28;20041;-78
2023/12/12 18:37:59;;;;;;;11.88;5.18;;;10.20;99.90;;;;;;20856900;28;20025;-78
2023/12/12 18:48:00;;;;;;;8.83;6.00;;;10.30;99.90;;;;;;20882119;28;20135;-79
2023/12/12 18:58:00;;;;;;;11.20;7.30;;;10.10;99.90;;;;;;20873897;28;20114;-78
2023/12/12 19:08:02;;;;;;;14.30;7.50;;;10.10;99.90;;;;;;20863955;28;20037;-80
2023/12/12 19:18:03;;;;;;;12.23;7.20;;;10.00;99.90;;;;;;20864578;28;20033;-79
2023/12/12 19:28:04;;;;;;;12.05;6.55;;;10.00;99.90;;;;;;20862782;28;20135;-79
2023/12/12 19:38:06;;;;;;;28.40;14.23;;;9.90;99.90;;;;;;20875895;28;20041;-81
2023/12/12 19:48:06;;;;;;;15.27;7.97;;;9.70;99.90;;;;;;20878049;28;20025;-80
2023/12/12 19:58:07;;;;;;;13.63;7.33;;;9.70;99.90;;;;;;20873532;28;20037;-80
2023/12/12 20:08:08;;;;;;;7.80;3.57;;;9.60;99.90;;;;;;20885796;28;20033;-80
2023/12/12 20:18:09;;;;;;;4.00;2.07;;;9.50;99.90;;;;;;20881426;28;20033;-81
2023/12/12 20:28:10;;;;;;;6.53;2.20;;;9.50;99.90;;;;;;20876167;28;20024;-80
2023/12/12 20:38:11;;;;;;;5.97;3.50;;;9.50;99.90;;;;;;20872350;28;20025;-82
2023/12/12 20:48:12;;;;;;;4.57;2.60;;;9.30;99.90;;;;;;20895090;28;20044;-80
2023/12/12 20:58:13;;;;;;;;;;;9.30;99.90;;;;;;20882315;28;20024;-78
2023/12/12 21:08:14;;;;;;;4.28;2.40;;;9.10;99.90;;;;;;20874359;28;20388;-79
2023/12/12 21:18:15;;;;;;;11.10;5.47;;;9.10;99.90;;;;;;20855202;28;20516;-83
2023/12/12 21:28:16;;;;;;;3.67;1.83;;;9.20;99.90;;;;;;20867050;28;20293;-81
2023/12/12 21:38:21;;;;;;;5.23;2.63;;;9.00;99.90;;;;;;20870872;28;20098;-83
2023/12/12 21:48:22;;;;;;;9.63;3.83;;;9.00;99.90;;;;;;20881674;28;20409;-82
2023/12/12 21:58:23;;;;;;;4.30;2.45;;;9.10;99.90;;;;;;20883924;28;20024;-83
2023/12/12 22:08:23;;;;;;;7.37;3.80;;;9.10;99.90;;;;;;20883380;28;20025;-81
2023/12/12 22:18:24;;;;;;;10.67;5.57;;;9.10;99.90;;;;;;20859765;28;20124;-81
2023/12/12 22:28:25;;;;;;;13.10;6.13;;;9.00;99.90;;;;;;20883539;28;20061;-81
2023/12/12 22:38:28;;;;;;;8.43;3.77;;;9.00;99.90;;;;;;20897833;28;20510;-81
2023/12/12 22:48:28;;;;;;;8.55;4.57;;;9.00;99.90;;;;;;20891902;28;20056;-81
2023/12/12 22:58:29;;;;;;;8.20;4.30;;;8.90;99.90;;;;;;20902985;28;20055;-81
2023/12/12 23:08:33;;;;;;;7.73;4.30;;;8.90;99.90;;;;;;20874842;28;20033;-79
2023/12/12 23:18:36;;;;;;;6.63;3.28;;;8.80;99.90;;;;;;20866727;28;20029;-78
2023/12/12 23:28:40;;;;;;;2.17;1.30;;;8.80;99.90;;;;;;20893707;28;20477;-81
2023/12/12 23:38:40;;;;;;;2.63;1.08;;;8.80;99.90;;;;;;20872735;28;20076;-80
2023/12/12 23:48:41;;;;;;;4.10;1.00;;;8.80;99.90;;;;;;20890110;28;20033;-79
2023/12/12 23:58:42;;;;;;;0.83;0.60;;;8.80;99.90;;;;;;20904010;28;20025;-79
